Time;durP1;ratioP1;P1;durP2;ratioP2;P2;SDS_P1;SDS_P2;PMS_P1;PMS_P2;Temp;Humidity;BMP_temperature;BMP_pressure;BME280_temperature;BME280_humidity;BME280_pressure;Samples;Min_cycle;Max_cycle;Signal;HPM_P1;HPM_P2
2023/08/29 04:09:33;;;;;;;6.80;2.23;;;19.60;99.90;;;;;;6149253;23;20234;-87
2023/08/29 04:12:34;;;;;;;4.77;2.57;;;19.60;99.90;;;;;;6187576;23;20502;-86
2023/08/29 05:13:55;;;;;;;4.90;2.57;;;20.50;99.90;;;;;;6213389;23;20617;-82
2023/08/29 05:16:40;;;;;;;5.40;2.30;;;20.50;99.90;;;;;;6186924;23;20171;-80
2023/08/29 05:27:43;;;;;;;2.90;2.40;;;20.60;99.90;;;;;;6073930;23;20689;-80
2023/08/29 05:30:13;;;;;;;2.97;2.53;;;20.60;99.90;;;;;;6069228;23;20629;-80
2023/08/29 05:32:42;;;;;;;4.83;2.67;;;20.60;99.90;;;;;;6068095;23;20264;-80
2023/08/29 05:35:24;;;;;;;6.20;2.50;;;20.60;99.90;;;;;;6046125;23;20193;-80
2023/08/29 05:38:02;;;;;;;4.40;2.70;;;20.60;99.90;;;;;;6088595;23;20169;-80
2023/08/29 05:40:42;;;;;;;4.27;2.60;;;20.50;99.90;;;;;;6066741;23;20248;-78
2023/08/29 05:43:17;;;;;;;6.13;2.57;;;20.50;99.90;;;;;;6065306;23;20202;-83
2023/08/29 05:45:55;;;;;;;4.70;2.97;;;20.50;99.90;;;;;;6093783;23;20177;-80
2023/08/29 05:48:32;;;;;;;5.67;3.03;;;20.60;99.90;;;;;;6092709;23;20172;-79
2023/08/29 05:51:14;;;;;;;4.47;2.90;;;20.70;99.90;;;;;;6091441;23;20193;-80
2023/08/29 05:54:08;;;;;;;5.17;3.10;;;20.70;99.90;;;;;;6072907;23;20285;-76
2023/08/29 05:56:44;;;;;;;4.93;2.90;;;20.80;99.90;;;;;;6125720;23;20672;-76
2023/08/29 05:59:15;;;;;;;4.90;3.00;;;20.70;99.90;;;;;;6120194;23;20177;-78
2023/08/29 06:01:48;;;;;;;4.33;3.00;;;20.70;99.90;;;;;;6121852;23;20200;-78
2023/08/29 06:04:17;;;;;;;5.20;2.93;;;20.70;99.90;;;;;;6150197;23;20661;-76
2023/08/29 06:06:54;;;;;;;6.47;2.90;;;20.70;99.90;;;;;;6154567;23;20184;-78
2023/08/29 06:09:21;;;;;;;7.20;3.00;;;20.70;99.90;;;;;;6152849;23;20257;-78
2023/08/29 06:12:04;;;;;;;6.23;3.10;;;20.70;99.90;;;;;;6154622;23;20232;-78
2023/08/29 06:14:33;;;;;;;7.53;3.10;;;20.80;99.90;;;;;;6153638;23;20516;-79
2023/08/29 06:17:02;;;;;;;7.93;2.93;;;20.80;99.90;;;;;;6152242;23;20199;-80
2023/08/29 06:19:31;;;;;;;4.40;3.30;;;20.80;99.90;;;;;;6152180;23;20183;-77
2023/08/29 06:22:00;;;;;;;4.13;2.73;;;20.90;99.90;;;;;;6152122;23;20199;-80
2023/08/29 06:24:29;;;;;;;6.50;3.43;;;20.80;99.90;;;;;;6154211;23;20608;-78
2023/08/29 06:27:03;;;;;;;4.03;2.50;;;20.80;99.90;;;;;;6152715;23;20611;-79
2023/08/29 06:29:45;;;;;;;5.40;2.63;;;20.80;99.90;;;;;;6152784;23;20195;-77
2023/08/29 06:32:22;;;;;;;13.20;3.40;;;20.90;99.90;;;;;;6128560;23;20176;-79
2023/08/29 06:34:56;;;;;;;5.17;3.00;;;21.00;99.90;;;;;;6154163;23;20172;-85
2023/08/29 06:37:28;;;;;;;4.10;2.50;;;21.00;99.90;;;;;;6152018;23;20174;-84
2023/08/29 06:40:05;;;;;;;5.67;2.57;;;21.10;99.90;;;;;;6154383;23;20164;-86
2023/08/29 06:42:39;;;;;;;5.03;2.93;;;21.20;99.90;;;;;;6152835;23;20196;-84
2023/08/29 06:45:11;;;;;;;3.30;2.50;;;21.20;99.90;;;;;;6153651;23;20607;-85
2023/08/29 06:47:53;;;;;;;5.53;3.10;;;21.20;99.90;;;;;;6154785;23;20153;-79
2023/08/29 06:50:24;;;;;;;4.63;2.50;;;21.30;99.90;;;;;;6152479;23;20196;-85
2023/08/29 06:52:58;;;;;;;4.80;2.63;;;21.40;99.90;;;;;;6151052;23;20180;-85
2023/08/29 06:55:31;;;;;;;4.10;2.50;;;21.50;99.90;;;;;;6151934;23;20251;-85
2023/08/29 06:58:01;;;;;;;4.07;2.60;;;21.60;99.90;;;;;;6127949;23;20258;-85
2023/08/29 07:00:35;;;;;;;3.93;2.57;;;21.80;99.90;;;;;;6153498;23;20202;-83
2023/08/29 07:03:14;;;;;;;4.27;2.47;;;22.00;99.90;;;;;;6129037;23;20201;-84
2023/08/29 07:05:53;;;;;;;6.07;2.53;;;22.20;99.90;;;;;;6151865;23;20215;-84
2023/08/29 07:08:22;;;;;;;7.67;2.83;;;22.30;99.90;;;;;;6154164;23;20183;-85
2023/08/29 07:10:59;;;;;;;4.90;2.53;;;22.40;99.90;;;;;;6153219;23;20200;-79
2023/08/29 07:13:37;;;;;;;4.80;2.80;;;22.60;99.90;;;;;;6151942;23;20156;-80
2023/08/29 07:16:06;;;;;;;3.33;2.60;;;22.60;99.90;;;;;;6152287;23;20183;-84
2023/08/29 07:18:37;;;;;;;5.07;2.60;;;22.70;99.90;;;;;;6151548;23;20499;-84
2023/08/29 07:21:09;;;;;;;3.50;2.40;;;22.80;99.90;;;;;;6152268;23;20232;-84
2023/08/29 07:23:46;;;;;;;5.27;2.47;;;22.90;99.90;;;;;;6152213;23;20195;-83
2023/08/29 07:26:35;;;;;;;4.97;2.47;;;22.80;99.90;;;;;;6129451;23;20214;-84
2023/08/29 07:29:31;;;;;;;9.80;3.10;;;22.80;99.90;;;;;;6151585;23;20223;-84
2023/08/29 07:32:36;;;;;;;4.80;2.90;;;22.90;99.90;;;;;;6148717;23;20172;-85
2023/08/29 07:35:08;;;;;;;5.57;3.10;;;23.00;99.90;;;;;;6151570;23;20199;-85
2023/08/29 07:37:51;;;;;;;4.70;2.97;;;23.00;99.90;;;;;;6154239;23;20571;-79
2023/08/29 07:40:37;;;;;;;7.60;3.10;;;23.10;99.90;;;;;;6152344;23;20681;-80
2023/08/29 07:43:12;;;;;;;6.20;3.07;;;23.00;99.90;;;;;;6151772;23;20199;-84
2023/08/29 07:45:52;;;;;;;6.77;3.40;;;22.90;99.90;;;;;;6151210;23;20176;-83
2023/08/29 07:48:36;;;;;;;9.67;3.60;;;22.90;99.90;;;;;;6152175;23;20604;-84
2023/08/29 07:51:22;;;;;;;5.03;3.00;;;23.00;99.90;;;;;;6129857;23;20192;-86
2023/08/29 07:53:58;;;;;;;5.73;2.87;;;23.00;99.90;;;;;;6127972;23;20191;-79
2023/08/29 07:56:41;;;;;;;9.47;3.27;;;23.20;99.90;;;;;;6149671;23;20176;-85
2023/08/29 07:59:10;;;;;;;6.33;3.30;;;23.20;99.90;;;;;;6152779;23;20164;-86
2023/08/29 08:01:50;;;;;;;15.20;5.10;;;23.30;99.90;;;;;;6129458;23;20259;-85
2023/08/29 08:04:42;;;;;;;13.43;4.30;;;23.30;99.90;;;;;;6153114;23;20190;-86
2023/08/29 08:07:35;;;;;;;10.33;3.80;;;23.50;99.90;;;;;;6153133;23;20188;-87
2023/08/29 08:10:23;;;;;;;8.47;4.40;;;23.70;99.90;;;;;;6151068;23;20279;-83
2023/08/29 08:13:08;;;;;;;10.40;4.18;;;23.60;99.90;;;;;;6152084;23;20188;-86
2023/08/29 08:15:42;;;;;;;9.93;4.57;;;23.80;99.90;;;;;;6152053;23;20230;-87
2023/08/29 08:18:36;;;;;;;10.73;4.82;;;23.80;99.90;;;;;;6145521;23;20195;-87
2023/08/29 08:21:09;;;;;;;9.50;5.40;;;23.70;99.90;;;;;;6153686;23;20207;-86
2023/08/29 08:23:41;;;;;;;10.57;5.18;;;23.90;99.90;;;;;;6154499;23;20192;-86
2023/08/29 08:26:10;;;;;;;9.07;4.97;;;23.70;99.90;;;;;;6153416;23;20165;-84
2023/08/29 08:28:43;;;;;;;10.13;4.67;;;23.70;99.90;;;;;;6154971;23;20191;-86
2023/08/29 08:31:37;;;;;;;10.23;5.33;;;23.70;99.90;;;;;;6153934;23;20596;-86
2023/08/29 08:34:22;;;;;;;15.70;6.03;;;23.70;99.90;;;;;;6153919;23;20172;-79
2023/08/29 08:36:57;;;;;;;11.67;5.57;;;23.80;99.90;;;;;;6153755;23;20204;-78
2023/08/29 08:39:37;;;;;;;11.25;5.70;;;23.80;99.90;;;;;;6154749;23;20179;-79
2023/08/29 08:42:12;;;;;;;14.02;6.25;;;23.80;99.90;;;;;;6154253;23;20168;-79
2023/08/29 08:45:16;;;;;;;10.63;5.50;;;23.70;99.90;;;;;;6153993;23;20579;-80
2023/08/29 08:48:15;;;;;;;12.90;5.43;;;23.70;99.90;;;;;;6040074;23;20184;-86
2023/08/29 08:50:49;;;;;;;12.03;6.10;;;23.80;99.90;;;;;;6040919;23;20286;-78
2023/08/29 08:53:53;;;;;;;13.10;6.32;;;23.80;99.90;;;;;;6063615;23;20185;-80
2023/08/29 08:56:38;;;;;;;14.43;6.27;;;23.90;99.90;;;;;;6063976;23;20221;-79
2023/08/29 08:59:39;;;;;;;10.77;6.07;;;23.90;99.90;;;;;;6039498;23;20175;-87
2023/08/29 09:02:14;;;;;;;12.67;5.80;;;24.00;99.90;;;;;;6064660;23;20534;-87
2023/08/29 09:05:10;;;;;;;12.63;6.33;;;24.00;99.90;;;;;;6040029;23;20174;-87
2023/08/29 09:07:49;;;;;;;14.13;6.70;;;23.90;99.90;;;;;;6040632;23;20182;-87
2023/08/29 09:10:35;;;;;;;30.50;8.23;;;23.90;99.90;;;;;;6042011;23;20248;-84
2023/08/29 09:13:05;;;;;;;16.58;7.07;;;23.80;99.90;;;;;;6064985;23;20198;-85
2023/08/29 09:15:42;;;;;;;20.00;7.70;;;23.80;99.90;;;;;;6041291;23;20171;-86
2023/08/29 09:18:32;;;;;;;15.00;7.27;;;23.70;99.90;;;;;;6064294;23;20178;-87
2023/08/29 09:21:05;;;;;;;16.17;7.03;;;24.00;99.90;;;;;;6063543;23;20692;-87
2023/08/29 09:23:52;;;;;;;13.57;6.73;;;24.20;99.90;;;;;;6064027;23;20208;-86
2023/08/29 09:26:33;;;;;;;14.05;7.40;;;24.20;99.90;;;;;;6172438;23;20215;-87
2023/08/29 09:29:26;;;;;;;16.98;8.20;;;24.50;99.90;;;;;;6151112;23;20176;-87
2023/08/29 09:32:29;;;;;;;16.00;7.30;;;24.50;99.90;;;;;;6153098;23;20596;-87
2023/08/29 09:35:33;;;;;;;16.67;8.53;;;24.80;99.90;;;;;;6006063;23;20721;-87
2023/08/29 09:38:34;;;;;;;21.17;8.57;;;25.10;99.90;;;;;;5987502;23;20555;-87
2023/08/29 09:41:18;;;;;;;15.90;8.25;;;25.40;99.90;;;;;;6006872;23;20179;-85
2023/08/29 09:44:16;;;;;;;19.90;8.60;;;25.40;99.90;;;;;;6005752;23;20206;-87
2023/08/29 09:47:13;;;;;;;16.42;8.35;;;25.50;99.90;;;;;;5954433;24;20179;-87
2023/08/29 09:50:11;;;;;;;17.63;9.20;;;25.70;99.90;;;;;;5951779;24;20551;-87
2023/08/29 09:53:13;;;;;;;14.13;8.15;;;25.70;99.90;;;;;;5953765;24;20236;-80
2023/08/29 09:56:05;;;;;;;16.88;9.20;;;25.40;99.90;;;;;;5954955;24;20309;-79
2023/08/29 09:59:15;;;;;;;14.80;8.25;;;25.50;99.90;;;;;;5954273;24;20287;-81
2023/08/29 10:02:07;;;;;;;16.15;8.63;;;25.80;99.90;;;;;;5957216;24;20634;-86
2023/08/29 10:05:13;;;;;;;13.88;8.50;;;26.00;99.90;;;;;;5975583;23;20288;-85
2023/08/29 10:08:03;;;;;;;15.70;8.82;;;26.00;99.90;;;;;;6096239;23;20313;-84
2023/08/29 10:10:36;;;;;;;16.20;8.57;;;26.10;99.90;;;;;;6095308;23;20200;-87
2023/08/29 10:17:37;;;;;;;16.65;8.85;;;26.20;99.90;;;;;;5948878;24;20187;-87
2023/08/29 10:20:39;;;;;;;14.43;8.95;;;26.40;99.90;;;;;;5905103;24;20516;-86
2023/08/29 10:23:49;;;;;;;;;;;;;;;;;;;;;
2023/08/29 10:30:25;;;;;;;;;;;;;;;;;;;;;
2023/08/29 10:33:11;;;;;;;16.00;9.00;;;26.80;99.90;;;;;;5792420;24;20229;-81
2023/08/29 10:36:04;;;;;;;16.90;9.57;;;27.00;99.90;;;;;;5791549;24;20249;-86
2023/08/29 10:38:37;;;;;;;15.90;8.98;;;27.20;99.90;;;;;;5792775;24;20164;-79
2023/08/29 10:41:18;;;;;;;13.40;8.25;;;27.30;99.90;;;;;;5770811;24;20180;-87
2023/08/29 10:44:36;;;;;;;;;;;;;;;;;;;;;
2023/08/29 10:47:40;;;;;;;;;;;;;;;;;;;;;
2023/08/29 11:01:20;;;;;;;14.98;8.27;;;27.50;99.90;;;;;;5473962;22;16119111;-89
2023/08/29 11:04:21;;;;;;;15.25;9.13;;;27.20;99.90;;;;;;6134284;23;20222;-85
2023/08/29 11:07:42;;;;;;;;;;;;;;;;;;;;;
2023/08/29 11:11:23;;;;;;;17.13;10.90;;;27.20;99.90;;;;;;6133346;23;20175;-82
2023/08/29 11:14:24;;;;;;;13.10;8.85;;;26.80;99.90;;;;;;6136353;23;20262;-87
2023/08/29 11:17:31;;;;;;;15.48;9.05;;;27.10;99.90;;;;;;6137398;23;20168;-81
2023/08/29 11:20:14;;;;;;;16.10;9.52;;;27.30;99.90;;;;;;6111344;23;20186;-79
2023/08/29 11:23:16;;;;;;;15.15;9.88;;;27.20;99.90;;;;;;6136733;23;20218;-86
2023/08/29 11:26:42;;;;;;;16.98;9.55;;;27.00;99.90;;;;;;6112467;23;20178;-87
2023/08/29 11:29:24;;;;;;;15.25;9.50;;;27.00;99.90;;;;;;6109885;23;20356;-87
2023/08/29 11:32:38;;;;;;;14.32;8.80;;;27.20;99.90;;;;;;6082237;23;20187;-87
2023/08/29 11:36:04;;;;;;;;;;;;;;;;;;;;;
2023/08/29 11:38:47;;;;;;;14.48;9.23;;;27.30;99.90;;;;;;6141056;23;20334;-87
2023/08/29 11:41:51;;;;;;;13.93;9.88;;;27.70;99.90;;;;;;6141181;23;20659;-81
2023/08/29 11:44:54;;;;;;;15.25;9.90;;;27.90;99.90;;;;;;6158386;23;20176;-85
2023/08/29 11:48:02;;;;;;;17.48;9.82;;;28.10;99.90;;;;;;6165368;23;20309;-86
2023/08/29 11:50:42;;;;;;;16.40;10.10;;;27.90;99.90;;;;;;6190583;23;20187;-84
2023/08/29 11:53:37;;;;;;;19.40;10.35;;;27.80;99.90;;;;;;6141152;23;20286;-81
2023/08/29 11:57:10;;;;;;;18.90;10.68;;;27.70;99.90;;;;;;6025230;23;20633;-82
2023/08/29 12:00:35;;;;;;;16.25;9.48;;;27.70;99.90;;;;;;5948221;23;20291;-81
2023/08/29 12:03:28;;;;;;;17.52;10.38;;;27.60;99.90;;;;;;5978792;24;20173;-87
2023/08/29 12:06:34;;;;;;;17.08;10.43;;;27.60;99.90;;;;;;5977721;23;20210;-86
2023/08/29 12:09:41;;;;;;;18.50;10.68;;;27.70;99.90;;;;;;5974282;23;20230;-87
2023/08/29 12:12:35;;;;;;;16.35;10.00;;;27.80;99.90;;;;;;5976922;23;20658;-88
2023/08/29 12:15:18;;;;;;;18.25;10.90;;;27.90;99.90;;;;;;5956086;24;20183;-86
2023/08/29 12:18:25;;;;;;;19.00;11.20;;;28.10;99.90;;;;;;5972623;23;20208;-86
2023/08/29 12:21:21;;;;;;;17.08;10.55;;;28.30;99.90;;;;;;5978450;24;20641;-81
2023/08/29 12:24:15;;;;;;;16.58;10.52;;;28.30;99.90;;;;;;5951865;24;20247;-87
2023/08/29 12:27:05;;;;;;;16.20;10.88;;;28.30;99.90;;;;;;5975448;23;20421;-87
2023/08/29 12:30:18;;;;;;;18.23;11.50;;;27.90;99.90;;;;;;5978041;24;20287;-87
2023/08/29 12:33:19;;;;;;;18.02;10.80;;;27.70;99.90;;;;;;5893211;24;20766;-79
2023/08/29 12:36:00;;;;;;;16.77;10.63;;;27.30;99.90;;;;;;5975571;23;20221;-80
2023/08/29 12:38:52;;;;;;;16.65;11.07;;;27.50;99.90;;;;;;6010898;23;20219;-79
2023/08/29 12:41:50;;;;;;;17.83;11.07;;;27.40;99.90;;;;;;6019488;23;20249;-87
2023/08/29 12:48:36;;;;;;;18.25;11.55;;;26.70;99.90;;;;;;5900175;24;20633;-87
2023/08/29 12:51:10;;;;;;;17.52;10.70;;;26.40;99.90;;;;;;5923197;24;20288;-87
2023/08/29 12:53:51;;;;;;;18.17;11.65;;;26.40;99.90;;;;;;5922172;24;20230;-86
2023/08/29 12:56:39;;;;;;;18.95;11.52;;;26.50;99.90;;;;;;5923191;24;20212;-86
2023/08/29 12:59:19;;;;;;;17.15;10.80;;;26.50;99.90;;;;;;5929796;24;20211;-86
2023/08/29 13:01:52;;;;;;;18.85;11.55;;;26.40;99.90;;;;;;5928271;24;20207;-86
2023/08/29 13:04:40;;;;;;;18.92;10.73;;;26.60;99.90;;;;;;5972319;24;20184;-86
2023/08/29 13:07:18;;;;;;;17.27;11.30;;;26.60;99.90;;;;;;5972289;23;20245;-85
2023/08/29 13:10:09;;;;;;;16.05;10.50;;;26.40;99.90;;;;;;5999216;23;20333;-84
2023/08/29 13:12:54;;;;;;;18.38;11.23;;;26.50;99.90;;;;;;6068224;23;20175;-86
2023/08/29 13:15:42;;;;;;;16.25;11.05;;;26.30;99.90;;;;;;6017142;23;20227;-87
2023/08/29 13:18:28;;;;;;;18.52;11.32;;;26.50;99.90;;;;;;6040033;23;20282;-84
2023/08/29 13:21:21;;;;;;;18.05;11.40;;;26.40;99.90;;;;;;6019455;23;20214;-86
2023/08/29 13:23:57;;;;;;;18.60;11.10;;;26.40;99.90;;;;;;6039407;23;20186;-85
2023/08/29 13:26:49;;;;;;;20.98;12.07;;;26.40;99.90;;;;;;6037377;23;20610;-81
2023/08/29 13:29:50;;;;;;;18.13;11.15;;;26.60;99.90;;;;;;6041814;23;20203;-81
2023/08/29 13:33:17;;;;;;;18.88;12.15;;;26.70;99.90;;;;;;6061977;23;20180;-80
2023/08/29 13:36:17;;;;;;;18.92;11.70;;;27.00;99.90;;;;;;6062632;23;20202;-80
2023/08/29 13:39:12;;;;;;;16.45;10.70;;;26.90;99.90;;;;;;6110500;23;20335;-86
2023/08/29 13:41:57;;;;;;;17.73;10.82;;;27.30;99.90;;;;;;6126723;23;20202;-85
2023/08/29 13:44:43;;;;;;;15.63;10.30;;;27.70;99.90;;;;;;6105612;23;20263;-85
2023/08/29 13:47:32;;;;;;;18.38;11.10;;;27.90;99.90;;;;;;6128019;23;20187;-85
2023/08/29 13:50:20;;;;;;;15.10;10.25;;;27.30;99.90;;;;;;6127246;23;20215;-79
2023/08/29 13:53:08;;;;;;;17.80;10.75;;;27.40;99.90;;;;;;6153718;23;20183;-84
2023/08/29 13:55:43;;;;;;;16.98;10.38;;;27.50;99.90;;;;;;6151982;23;20622;-84
2023/08/29 13:58:42;;;;;;;15.98;10.10;;;27.80;99.90;;;;;;6130225;23;20164;-85
2023/08/29 14:01:27;;;;;;;15.48;9.55;;;28.40;99.90;;;;;;6129590;23;20236;-83
2023/08/29 14:04:02;;;;;;;14.05;9.77;;;28.10;99.90;;;;;;6103317;23;20180;-84
2023/08/29 14:06:37;;;;;;;14.40;10.38;;;27.90;99.90;;;;;;6128425;23;20646;-84
2023/08/29 14:09:13;;;;;;;16.35;8.48;;;28.50;99.90;;;;;;6127326;23;20199;-86
2023/08/29 14:11:51;;;;;;;14.57;8.88;;;29.60;99.90;;;;;;6153528;23;20605;-88
2023/08/29 14:14:24;;;;;;;13.55;8.52;;;29.90;99.90;;;;;;6128378;23;20191;-86
2023/08/29 14:17:06;;;;;;;18.20;9.25;;;29.70;99.90;;;;;;6127556;23;20176;-85
2023/08/29 14:19:37;;;;;;;12.68;8.93;;;29.00;99.90;;;;;;6128306;23;20172;-87
2023/08/29 14:22:19;;;;;;;13.27;8.85;;;28.40;99.90;;;;;;6103250;23;20180;-85
2023/08/29 14:24:50;;;;;;;11.50;8.15;;;28.20;99.90;;;;;;6128918;23;20164;-85
2023/08/29 14:27:26;;;;;;;15.70;8.77;;;28.60;99.90;;;;;;6104824;23;20168;-85
2023/08/29 14:30:18;;;;;;;13.82;8.45;;;28.40;99.90;;;;;;6130558;23;20176;-86
2023/08/29 14:32:55;;;;;;;14.77;8.80;;;28.70;99.90;;;;;;6129536;23;20222;-84
2023/08/29 14:35:26;;;;;;;13.82;8.70;;;28.80;99.90;;;;;;6102665;23;20200;-85
2023/08/29 14:38:01;;;;;;;11.75;8.20;;;29.00;99.90;;;;;;6103293;23;20176;-84
2023/08/29 14:40:33;;;;;;;12.98;9.52;;;29.50;99.90;;;;;;6102904;23;20182;-84
2023/08/29 14:43:10;;;;;;;11.38;8.65;;;28.70;99.90;;;;;;6153385;23;20636;-79
2023/08/29 14:45:45;;;;;;;14.88;9.77;;;28.20;99.90;;;;;;6127810;23;20168;-85
2023/08/29 14:48:18;;;;;;;16.92;9.40;;;27.80;99.90;;;;;;6102819;23;20355;-84
2023/08/29 14:50:47;;;;;;;14.05;9.38;;;27.70;99.90;;;;;;6102460;23;20208;-84
2023/08/29 14:53:17;;;;;;;12.95;8.90;;;27.50;99.90;;;;;;6103414;23;20175;-85
2023/08/29 14:55:52;;;;;;;12.80;9.45;;;27.40;99.90;;;;;;6103502;23;20251;-85
2023/08/29 14:58:27;;;;;;;18.10;10.38;;;27.20;99.90;;;;;;6105242;23;20187;-85
2023/08/29 15:01:15;;;;;;;12.65;9.65;;;26.50;99.90;;;;;;6150156;23;20275;-84
2023/08/29 15:03:50;;;;;;;13.88;10.07;;;26.60;99.90;;;;;;6154005;23;20244;-85
2023/08/29 15:06:24;;;;;;;17.73;10.40;;;26.30;99.90;;;;;;6128059;23;20196;-80
2023/08/29 15:08:58;;;;;;;17.25;10.63;;;26.00;99.90;;;;;;6151675;23;20269;-80
2023/08/29 15:11:27;;;;;;;18.55;11.57;;;25.80;99.90;;;;;;6127829;23;20176;-84
2023/08/29 15:14:00;;;;;;;18.10;11.32;;;25.50;99.90;;;;;;6128646;23;20215;-83
2023/08/29 15:16:28;;;;;;;17.90;10.88;;;25.20;99.90;;;;;;6153835;23;20182;-85
2023/08/29 15:19:00;;;;;;;16.27;11.15;;;25.20;99.90;;;;;;6128098;23;20172;-85
2023/08/29 15:21:46;;;;;;;17.08;11.50;;;25.20;99.90;;;;;;6124565;23;20212;-85
2023/08/29 15:24:21;;;;;;;15.73;10.98;;;25.40;99.90;;;;;;6151723;23;20168;-85
2023/08/29 15:26:51;;;;;;;16.48;11.02;;;25.60;99.90;;;;;;6128258;23;20198;-85
2023/08/29 15:29:24;;;;;;;13.32;9.82;;;25.80;99.90;;;;;;6151440;23;20263;-84
2023/08/29 15:31:57;;;;;;;17.42;10.45;;;26.10;99.90;;;;;;6151964;23;20175;-85
2023/08/29 15:34:36;;;;;;;14.98;10.13;;;26.30;99.90;;;;;;6128052;23;20172;-86
2023/08/29 15:37:09;;;;;;;14.32;9.98;;;26.40;99.90;;;;;;6155254;23;20267;-84
2023/08/29 15:39:46;;;;;;;12.77;9.70;;;26.40;99.90;;;;;;6153734;23;20164;-84
2023/08/29 15:42:15;;;;;;;13.40;9.93;;;26.30;99.90;;;;;;6153114;23;20167;-84
2023/08/29 15:44:50;;;;;;;15.30;10.48;;;26.10;99.90;;;;;;6153285;23;20648;-84
2023/08/29 15:47:27;;;;;;;18.58;10.93;;;25.90;99.90;;;;;;6153345;23;20199;-81
2023/08/29 15:50:07;;;;;;;15.13;10.05;;;25.70;99.90;;;;;;6152425;23;20257;-82
2023/08/29 15:52:37;;;;;;;15.40;11.68;;;25.80;99.90;;;;;;6155711;23;20258;-80
2023/08/29 15:55:45;;;;;;;15.52;11.70;;;25.70;99.90;;;;;;6154396;23;20157;-81
2023/08/29 15:58:16;;;;;;;16.30;10.20;;;25.50;99.90;;;;;;6154942;23;20172;-81
2023/08/29 16:00:46;;;;;;;12.35;9.48;;;25.60;99.90;;;;;;6153823;23;20542;-80
2023/08/29 16:03:25;;;;;;;14.60;9.75;;;25.60;99.90;;;;;;6155464;23;20175;-80
2023/08/29 16:05:54;;;;;;;14.10;10.50;;;25.40;99.90;;;;;;6155175;23;20262;-81
2023/08/29 16:08:33;;;;;;;14.70;9.40;;;25.60;99.90;;;;;;6155609;23;20180;-80
2023/08/29 16:11:12;;;;;;;14.50;10.45;;;25.60;99.90;;;;;;6131316;23;20233;-78
2023/08/29 16:13:41;;;;;;;16.88;11.48;;;25.50;99.90;;;;;;6129528;23;20172;-81
2023/08/29 16:16:12;;;;;;;16.13;10.52;;;25.10;99.90;;;;;;6154097;23;20176;-77
2023/08/29 16:18:45;;;;;;;18.30;11.45;;;25.00;99.90;;;;;;6154164;23;20268;-78
2023/08/29 16:21:21;;;;;;;15.05;10.63;;;25.10;99.90;;;;;;6154929;23;20223;-78
2023/08/29 16:23:52;;;;;;;13.25;10.15;;;24.80;99.90;;;;;;6152856;23;20263;-79
2023/08/29 16:26:22;;;;;;;14.63;9.85;;;24.80;99.90;;;;;;6153561;23;20616;-78
2023/08/29 16:28:57;;;;;;;13.20;9.60;;;24.90;99.90;;;;;;6153464;23;20493;-80
2023/08/29 16:31:37;;;;;;;14.40;9.93;;;25.10;99.90;;;;;;6152757;23;20267;-81
2023/08/29 16:34:08;;;;;;;13.60;10.13;;;25.00;99.90;;;;;;6154687;23;20555;-79
2023/08/29 16:36:44;;;;;;;14.50;10.90;;;25.00;99.90;;;;;;6155371;23;20202;-78
2023/08/29 16:39:12;;;;;;;18.02;11.10;;;24.80;99.90;;;;;;6153021;23;20176;-75
2023/08/29 16:41:40;;;;;;;15.75;11.52;;;24.60;99.90;;;;;;6154563;23;20317;-77
2023/08/29 16:44:08;;;;;;;18.55;11.52;;;24.30;99.90;;;;;;6154376;23;20176;-79
2023/08/29 16:46:38;;;;;;;14.15;10.55;;;24.20;99.90;;;;;;6153534;23;20172;-80
2023/08/29 16:49:06;;;;;;;15.07;11.38;;;24.10;99.90;;;;;;6154024;23;20178;-80
2023/08/29 16:51:38;;;;;;;15.55;10.63;;;24.10;99.90;;;;;;6154414;23;20287;-80
2023/08/29 16:54:06;;;;;;;14.50;10.18;;;24.00;99.90;;;;;;6154250;23;20176;-80
2023/08/29 16:56:36;;;;;;;15.32;10.88;;;24.00;99.90;;;;;;6177987;23;20223;-79
2023/08/29 16:59:16;;;;;;;14.45;10.55;;;23.90;99.90;;;;;;6159215;23;20197;-79
2023/08/29 17:01:44;;;;;;;15.35;11.05;;;23.80;99.90;;;;;;6157659;23;20179;-78
2023/08/29 17:04:12;;;;;;;15.50;10.23;;;23.80;99.90;;;;;;6183919;23;20175;-78
2023/08/29 17:06:44;;;;;;;15.23;10.70;;;23.90;99.90;;;;;;6182988;23;20183;-79
2023/08/29 17:09:17;;;;;;;16.27;10.97;;;23.90;99.90;;;;;;6182861;23;20237;-77
2023/08/29 17:11:48;;;;;;;15.03;9.80;;;23.80;99.90;;;;;;6157630;23;20178;-77
2023/08/29 17:14:25;;;;;;;16.17;11.15;;;23.80;99.90;;;;;;6158185;23;20575;-75
2023/08/29 17:17:08;;;;;;;14.47;10.40;;;23.70;99.90;;;;;;6183144;23;20690;-78
2023/08/29 17:19:59;;;;;;;16.10;11.02;;;23.80;99.90;;;;;;6183695;23;20246;-78
2023/08/29 17:22:39;;;;;;;17.20;10.50;;;23.60;99.90;;;;;;6157105;23;20176;-78
2023/08/29 17:25:14;;;;;;;19.17;11.75;;;23.50;99.90;;;;;;6184132;23;20163;-81
2023/08/29 17:27:51;;;;;;;17.40;11.15;;;23.50;99.90;;;;;;6182704;23;20172;-81
2023/08/29 17:30:26;;;;;;;18.70;11.90;;;23.30;99.90;;;;;;6157662;23;20191;-78
2023/08/29 17:32:59;;;;;;;16.00;11.27;;;23.40;99.90;;;;;;6157199;23;20164;-79
2023/08/29 17:35:36;;;;;;;14.93;11.30;;;23.30;99.90;;;;;;6184053;23;20200;-78
2023/08/29 17:38:09;;;;;;;17.67;11.07;;;23.20;99.90;;;;;;6184222;23;20163;-77
2023/08/29 17:40:45;;;;;;;14.57;11.13;;;23.20;99.90;;;;;;6156364;23;20373;-78
2023/08/29 17:43:13;;;;;;;16.27;11.33;;;23.10;99.90;;;;;;6182332;23;20599;-75
2023/08/29 17:45:49;;;;;;;17.07;11.73;;;23.10;99.90;;;;;;6157853;23;20421;-79
2023/08/29 17:48:21;;;;;;;17.63;10.87;;;23.10;99.90;;;;;;6157914;23;20288;-78
2023/08/29 17:51:03;;;;;;;14.10;10.47;;;23.00;99.90;;;;;;6183312;23;20206;-79
2023/08/29 17:53:39;;;;;;;18.67;12.20;;;23.00;99.90;;;;;;6184180;23;20614;-79
2023/08/29 17:56:21;;;;;;;17.40;11.47;;;22.90;99.90;;;;;;6086212;23;20629;-80
2023/08/29 17:59:01;;;;;;;15.13;11.67;;;22.80;99.90;;;;;;6182481;23;20243;-78
2023/08/29 18:01:36;;;;;;;17.17;11.87;;;22.90;99.90;;;;;;6183175;23;20233;-79
2023/08/29 18:04:13;;;;;;;16.30;11.90;;;22.70;99.90;;;;;;6156100;23;20225;-79
2023/08/29 18:06:41;;;;;;;16.40;11.73;;;22.70;99.90;;;;;;6182648;23;20591;-81
2023/08/29 18:09:10;;;;;;;16.43;11.43;;;22.70;99.90;;;;;;6132652;23;20183;-79
2023/08/29 18:11:42;;;;;;;17.43;11.70;;;22.70;99.90;;;;;;6183287;23;20233;-81
2023/08/29 18:14:15;;;;;;;15.13;10.80;;;22.50;99.90;;;;;;6158046;23;20171;-80
2023/08/29 18:16:45;;;;;;;16.30;11.30;;;22.50;99.90;;;;;;6183885;23;20195;-82
2023/08/29 18:19:19;;;;;;;15.67;11.90;;;22.60;99.90;;;;;;6186126;23;20267;-80
2023/08/29 18:21:52;;;;;;;17.83;12.37;;;22.50;99.90;;;;;;6183408;23;20203;-80
2023/08/29 18:24:25;;;;;;;16.00;10.23;;;22.50;99.90;;;;;;6156986;23;20176;-81
2023/08/29 18:26:53;;;;;;;17.10;12.57;;;22.40;99.90;;;;;;6132639;23;20164;-80
2023/08/29 18:29:32;;;;;;;20.17;14.00;;;22.30;99.90;;;;;;6158154;23;20219;-79
2023/08/29 18:32:05;;;;;;;15.97;11.80;;;22.30;99.90;;;;;;6133516;23;20205;-79
2023/08/29 18:34:56;;;;;;;18.23;12.40;;;22.30;99.90;;;;;;6160520;23;20198;-79
2023/08/29 18:37:35;;;;;;;16.97;11.90;;;22.30;99.90;;;;;;6183391;23;20195;-79
2023/08/29 18:40:06;;;;;;;16.53;11.57;;;22.20;99.90;;;;;;6183253;23;20221;-79
2023/08/29 18:42:40;;;;;;;19.10;11.90;;;22.10;99.90;;;;;;6158644;23;20152;-79
2023/08/29 18:45:13;;;;;;;18.10;11.83;;;22.00;99.90;;;;;;6157441;23;20156;-79
2023/08/29 18:47:41;;;;;;;14.67;11.00;;;21.90;99.90;;;;;;6156667;23;20172;-79
2023/08/29 18:50:12;;;;;;;15.43;11.13;;;21.90;99.90;;;;;;6157109;23;20282;-79
2023/08/29 18:52:42;;;;;;;15.80;11.20;;;22.00;99.90;;;;;;6156654;23;20596;-80
2023/08/29 18:55:10;;;;;;;15.97;11.20;;;21.90;99.90;;;;;;6132115;23;20167;-79
2023/08/29 18:57:44;;;;;;;15.57;11.27;;;22.00;99.90;;;;;;6156466;23;20168;-80
2023/08/29 19:00:21;;;;;;;16.90;11.50;;;22.00;99.90;;;;;;6150799;23;20201;-80
2023/08/29 19:02:56;;;;;;;19.30;11.53;;;21.90;99.90;;;;;;6151282;23;20172;-79
2023/08/29 19:05:35;;;;;;;15.60;10.73;;;21.80;99.90;;;;;;6129326;23;20191;-80
2023/08/29 19:08:17;;;;;;;14.00;10.70;;;21.80;99.90;;;;;;6151179;23;20663;-80
2023/08/29 19:11:03;;;;;;;17.27;11.40;;;21.80;99.90;;;;;;6152067;23;20566;-78
2023/08/29 19:13:34;;;;;;;17.20;11.67;;;21.80;99.90;;;;;;6155321;23;20164;-79
2023/08/29 19:16:18;;;;;;;16.07;11.30;;;21.70;99.90;;;;;;6150654;23;20180;-78
2023/08/29 19:19:03;;;;;;;22.07;12.63;;;21.70;99.90;;;;;;6155484;23;20168;-78
2023/08/29 19:21:32;;;;;;;16.13;11.80;;;21.60;99.90;;;;;;6154719;23;20179;-79
2023/08/29 19:24:07;;;;;;;16.40;11.30;;;21.60;99.90;;;;;;6152852;23;20607;-79
2023/08/29 19:26:42;;;;;;;14.97;11.50;;;21.60;99.90;;;;;;6153751;23;20159;-81
2023/08/29 19:29:10;;;;;;;17.13;11.30;;;21.60;99.90;;;;;;6155462;23;20168;-78
2023/08/29 19:31:37;;;;;;;17.07;11.43;;;21.60;99.90;;;;;;6153855;23;20250;-83
2023/08/29 19:34:05;;;;;;;15.70;11.10;;;21.60;99.90;;;;;;6154944;23;20168;-83